Terminal Aerodrome Forecast
Issued by NWS

Home | Current Version | Previous Version | Text Only | Print | Product List | Glossary On
Versions: 1 2 3 4 5 6 7 8 9 10 11 12 13 14 15 16 17 18 19 20 21 22 23 24 25 26 27 28 29 30 31 32 33 34
000
FTUS44 KLIX 302333
TAFHUM
TAF
KHUM 302333Z 3100/3124 18005KT P6SM FEW030 SCT050
     FM310700 VRB03KT 5SM BR FEW200
      TEMPO 3108/3112 1 1/2SM BR
     FM311400 00000KT P6SM FEW250
     FM312000 14006KT P6SM SKC=

USA.gov is the U.S. government's official web portal to all federal, state and local government web resources and services.